sensor_id;sensor_type;location;lat;lon;timestamp;pressure;altitude;pressure_sealevel;temperature
34807;BMP280;18310;55.586;12.286;2023-04-24T00:00:41;100408.59;;;14.54
34807;BMP280;18310;55.586;12.286;2023-04-24T00:03:46;100434.06;;;14.68
34807;BMP280;18310;55.586;12.286;2023-04-24T00:06:50;100429.03;;;14.74
34807;BMP280;18310;55.586;12.286;2023-04-24T00:09:57;100431.38;;;14.79
34807;BMP280;18310;55.586;12.286;2023-04-24T00:13:00;100426.72;;;14.83
34807;BMP280;18310;55.586;12.286;2023-04-24T00:16:04;100423.56;;;14.88
34807;BMP280;18310;55.586;12.286;2023-04-24T00:19:07;100417.69;;;14.89
34807;BMP280;18310;55.586;12.286;2023-04-24T00:22:11;100416.16;;;14.92
34807;BMP280;18310;55.586;12.286;2023-04-24T00:25:16;100412.25;;;14.93
34807;BMP280;18310;55.586;12.286;2023-04-24T00:28:19;100413.00;;;14.90
34807;BMP280;18310;55.586;12.286;2023-04-24T00:31:23;100407.13;;;14.88
34807;BMP280;18310;55.586;12.286;2023-04-24T00:34:26;100395.00;;;14.89
34807;BMP280;18310;55.586;12.286;2023-04-24T00:37:30;100385.59;;;14.86
34807;BMP280;18310;55.586;12.286;2023-04-24T00:40:34;100398.13;;;14.87
34807;BMP280;18310;55.586;12.286;2023-04-24T00:43:37;100398.50;;;14.89
34807;BMP280;18310;55.586;12.286;2023-04-24T00:46:41;100395.03;;;14.96
34807;BMP280;18310;55.586;12.286;2023-04-24T00:49:45;100381.69;;;14.91
34807;BMP280;18310;55.586;12.286;2023-04-24T00:52:48;100384.44;;;14.98
34807;BMP280;18310;55.586;12.286;2023-04-24T00:55:53;100380.91;;;14.98
34807;BMP280;18310;55.586;12.286;2023-04-24T00:58:57;100391.88;;;15.01
34807;BMP280;18310;55.586;12.286;2023-04-24T01:02:01;100386.03;;;14.99
34807;BMP280;18310;55.586;12.286;2023-04-24T01:05:04;100384.44;;;15.02
34807;BMP280;18310;55.586;12.286;2023-04-24T01:08:08;100389.16;;;15.01
34807;BMP280;18310;55.586;12.286;2023-04-24T01:11:13;100381.31;;;14.96
34807;BMP280;18310;55.586;12.286;2023-04-24T01:14:16;100377.41;;;14.93
34807;BMP280;18310;55.586;12.286;2023-04-24T01:17:19;100374.25;;;14.91
34807;BMP280;18310;55.586;12.286;2023-04-24T01:20:24;100367.63;;;14.89
34807;BMP280;18310;55.586;12.286;2023-04-24T01:23:29;100355.84;;;14.85
34807;BMP280;18310;55.586;12.286;2023-04-24T01:26:32;100350.38;;;14.81
34807;BMP280;18310;55.586;12.286;2023-04-24T01:29:36;100345.63;;;14.75
34807;BMP280;18310;55.586;12.286;2023-04-24T01:32:40;100344.47;;;14.69
34807;BMP280;18310;55.586;12.286;2023-04-24T01:35:46;100338.97;;;14.62
34807;BMP280;18310;55.586;12.286;2023-04-24T01:38:50;100326.81;;;14.52
34807;BMP280;18310;55.586;12.286;2023-04-24T01:41:54;100328.75;;;14.52
34807;BMP280;18310;55.586;12.286;2023-04-24T01:44:57;100320.16;;;14.50
34807;BMP280;18310;55.586;12.286;2023-04-24T01:48:00;100318.97;;;14.47
34807;BMP280;18310;55.586;12.286;2023-04-24T01:51:04;100319.34;;;14.45
34807;BMP280;18310;55.586;12.286;2023-04-24T01:54:08;100315.84;;;14.45
34807;BMP280;18310;55.586;12.286;2023-04-24T01:57:13;100312.72;;;14.46
34807;BMP280;18310;55.586;12.286;2023-04-24T02:00:16;100304.88;;;14.45
34807;BMP280;18310;55.586;12.286;2023-04-24T02:03:19;100304.09;;;14.44
34807;BMP280;18310;55.586;12.286;2023-04-24T02:06:22;100288.81;;;14.40
34807;BMP280;18310;55.586;12.286;2023-04-24T02:09:27;100297.06;;;14.47
34807;BMP280;18310;55.586;12.286;2023-04-24T02:12:30;100296.66;;;14.48
34807;BMP280;18310;55.586;12.286;2023-04-24T02:15:33;100283.78;;;14.53
34807;BMP280;18310;55.586;12.286;2023-04-24T02:18:37;100281.03;;;14.56
34807;BMP280;18310;55.586;12.286;2023-04-24T02:21:40;100274.78;;;14.56
34807;BMP280;18310;55.586;12.286;2023-04-24T02:24:45;100266.56;;;14.56
34807;BMP280;18310;55.586;12.286;2023-04-24T02:27:48;100265.41;;;14.53
34807;BMP280;18310;55.586;12.286;2023-04-24T02:30:52;100237.59;;;14.40
34807;BMP280;18310;55.586;12.286;2023-04-24T02:33:55;100271.28;;;14.59
34807;BMP280;18310;55.586;12.286;2023-04-24T02:36:58;100262.28;;;14.62
34807;BMP280;18310;55.586;12.286;2023-04-24T02:40:02;100252.88;;;14.63
34807;BMP280;18310;55.586;12.286;2023-04-24T02:43:07;100251.72;;;14.64
34807;BMP280;18310;55.586;12.286;2023-04-24T02:46:11;100258.75;;;14.65
34807;BMP280;18310;55.586;12.286;2023-04-24T02:49:14;100243.13;;;14.65
34807;BMP280;18310;55.586;12.286;2023-04-24T02:52:17;100237.22;;;14.67
34807;BMP280;18310;55.586;12.286;2023-04-24T02:55:22;100241.97;;;14.70
34807;BMP280;18310;55.586;12.286;2023-04-24T02:58:25;100245.84;;;14.69
34807;BMP280;18310;55.586;12.286;2023-04-24T03:01:28;100238.00;;;14.67
34807;BMP280;18310;55.586;12.286;2023-04-24T03:04:31;100226.28;;;14.67
34807;BMP280;18310;55.586;12.286;2023-04-24T03:07:35;100220.03;;;14.66
34807;BMP280;18310;55.586;12.286;2023-04-24T03:10:39;100213.00;;;14.69
34807;BMP280;18310;55.586;12.286;2023-04-24T03:13:43;100207.91;;;14.71
34807;BMP280;18310;55.586;12.286;2023-04-24T03:16:46;100202.44;;;14.71
34807;BMP280;18310;55.586;12.286;2023-04-24T03:19:49;100194.59;;;14.73
34807;BMP280;18310;55.586;12.286;2023-04-24T03:22:52;100191.88;;;14.73
34807;BMP280;18310;55.586;12.286;2023-04-24T03:25:56;100175.00;;;14.74
34807;BMP280;18310;55.586;12.286;2023-04-24T03:28:59;100186.75;;;14.75
34807;BMP280;18310;55.586;12.286;2023-04-24T03:32:02;100184.81;;;14.79
34807;BMP280;18310;55.586;12.286;2023-04-24T03:35:06;100175.00;;;14.74
34807;BMP280;18310;55.586;12.286;2023-04-24T03:38:10;100168.00;;;14.77
34807;BMP280;18310;55.586;12.286;2023-04-24T03:41:14;100181.69;;;14.80
34807;BMP280;18310;55.586;12.286;2023-04-24T03:44:17;100171.50;;;14.77
34807;BMP280;18310;55.586;12.286;2023-04-24T03:47:20;100166.78;;;14.78
34807;BMP280;18310;55.586;12.286;2023-04-24T03:50:23;100166.78;;;14.78
34807;BMP280;18310;55.586;12.286;2023-04-24T03:53:28;100167.19;;;14.76
34807;BMP280;18310;55.586;12.286;2023-04-24T03:56:33;100166.78;;;14.78
34807;BMP280;18310;55.586;12.286;2023-04-24T03:59:36;100166.78;;;14.78
34807;BMP280;18310;55.586;12.286;2023-04-24T04:02:39;100160.16;;;14.79
34807;BMP280;18310;55.586;12.286;2023-04-24T04:05:42;100158.19;;;14.79
34807;BMP280;18310;55.586;12.286;2023-04-24T04:08:45;100157.41;;;14.75
34807;BMP280;18310;55.586;12.286;2023-04-24T04:11:49;100163.28;;;14.81
34807;BMP280;18310;55.586;12.286;2023-04-24T04:14:52;100165.66;;;14.82
34807;BMP280;18310;55.586;12.286;2023-04-24T04:17:56;100158.59;;;14.85
34807;BMP280;18310;55.586;12.286;2023-04-24T04:20:59;100161.31;;;14.88
34807;BMP280;18310;55.586;12.286;2023-04-24T04:24:03;100163.66;;;14.86
34807;BMP280;18310;55.586;12.286;2023-04-24T04:27:08;100156.63;;;14.85
34807;BMP280;18310;55.586;12.286;2023-04-24T04:30:12;100142.56;;;14.83
34807;BMP280;18310;55.586;12.286;2023-04-24T04:33:15;100141.78;;;14.83
34807;BMP280;18310;55.586;12.286;2023-04-24T04:36:18;100141.78;;;14.83
34807;BMP280;18310;55.586;12.286;2023-04-24T04:39:21;100144.13;;;14.81
34807;BMP280;18310;55.586;12.286;2023-04-24T04:42:26;100142.16;;;14.81
34807;BMP280;18310;55.586;12.286;2023-04-24T04:45:30;100146.47;;;14.82
34807;BMP280;18310;55.586;12.286;2023-04-24T04:48:34;100141.38;;;14.81
34807;BMP280;18310;55.586;12.286;2023-04-24T04:51:37;100153.13;;;14.81
34807;BMP280;18310;55.586;12.286;2023-04-24T04:54:43;100145.66;;;14.78
34807;BMP280;18310;55.586;12.286;2023-04-24T04:57:49;100143.34;;;14.73
34807;BMP280;18310;55.586;12.286;2023-04-24T05:01:12;100153.13;;;14.81
34807;BMP280;18310;55.586;12.286;2023-04-24T05:04:15;100151.53;;;14.84
34807;BMP280;18310;55.586;12.286;2023-04-24T05:07:18;100147.22;;;14.90
34807;BMP280;18310;55.586;12.286;2023-04-24T05:10:22;100137.84;;;14.87
34807;BMP280;18310;55.586;12.286;2023-04-24T05:13:25;100164.06;;;15.06
34807;BMP280;18310;55.586;12.286;2023-04-24T05:16:42;100205.53;;;15.19
34807;BMP280;18310;55.586;12.286;2023-04-24T05:19:45;100207.06;;;15.27
34807;BMP280;18310;55.586;12.286;2023-04-24T05:22:48;100151.84;;;15.28
34807;BMP280;18310;55.586;12.286;2023-04-24T05:25:51;100149.16;;;15.18
34807;BMP280;18310;55.586;12.286;2023-04-24T05:29:12;100180.47;;;15.17
34807;BMP280;18310;55.586;12.286;2023-04-24T05:32:15;100173.78;;;15.21
34807;BMP280;18310;55.586;12.286;2023-04-24T06:31:07;100172.28;;;10.45
34807;BMP280;18310;55.586;12.286;2023-04-24T06:34:10;100160.31;;;11.48
34807;BMP280;18310;55.586;12.286;2023-04-24T06:37:13;100159.69;;;12.21
34807;BMP280;18310;55.586;12.286;2023-04-24T06:40:17;100157.41;;;12.71
34807;BMP280;18310;55.586;12.286;2023-04-24T06:43:21;100150.66;;;13.05
34807;BMP280;18310;55.586;12.286;2023-04-24T06:46:26;100147.31;;;13.33
34807;BMP280;18310;55.586;12.286;2023-04-24T06:49:29;100137.63;;;13.53
34807;BMP280;18310;55.586;12.286;2023-04-24T06:52:32;100142.81;;;13.69
34807;BMP280;18310;55.586;12.286;2023-04-24T06:55:36;100135.75;;;13.71
34807;BMP280;18310;55.586;12.286;2023-04-24T06:58:40;100127.59;;;13.85
34807;BMP280;18310;55.586;12.286;2023-04-24T07:01:44;100126.84;;;13.92
34807;BMP280;18310;55.586;12.286;2023-04-24T07:04:47;100112.75;;;13.90
34807;BMP280;18310;55.586;12.286;2023-04-24T07:07:50;100109.63;;;13.95
34807;BMP280;18310;55.586;12.286;2023-04-24T07:10:54;100115.13;;;13.98
34807;BMP280;18310;55.586;12.286;2023-04-24T07:13:58;100094.81;;;14.03
34807;BMP280;18310;55.586;12.286;2023-04-24T07:17:03;100106.56;;;14.04
34807;BMP280;18310;55.586;12.286;2023-04-24T07:20:08;100098.72;;;14.09
34807;BMP280;18310;55.586;12.286;2023-04-24T07:23:12;100114.38;;;14.12
34807;BMP280;18310;55.586;12.286;2023-04-24T07:26:15;100112.44;;;14.16
34807;BMP280;18310;55.586;12.286;2023-04-24T07:29:18;100104.59;;;14.25
34807;BMP280;18310;55.586;12.286;2023-04-24T07:32:24;100108.13;;;14.22
34807;BMP280;18310;55.586;12.286;2023-04-24T07:35:27;100111.25;;;14.31
34807;BMP280;18310;55.586;12.286;2023-04-24T07:38:30;100101.88;;;14.32
34807;BMP280;18310;55.586;12.286;2023-04-24T07:41:33;100097.19;;;14.33
34807;BMP280;18310;55.586;12.286;2023-04-24T07:44:36;100102.28;;;14.34
34807;BMP280;18310;55.586;12.286;2023-04-24T07:47:42;100111.66;;;14.37
34807;BMP280;18310;55.586;12.286;2023-04-24T07:50:47;100115.19;;;14.41
34807;BMP280;18310;55.586;12.286;2023-04-24T07:53:50;100111.28;;;14.45
34807;BMP280;18310;55.586;12.286;2023-04-24T07:56:53;100117.16;;;14.51
34807;BMP280;18310;55.586;12.286;2023-04-24T07:59:57;100107.72;;;14.56
34807;BMP280;18310;55.586;12.286;2023-04-24T08:11:11;100114.25;;;12.94
34807;BMP280;18310;55.586;12.286;2023-04-24T08:14:15;100112.22;;;13.42
34807;BMP280;18310;55.586;12.286;2023-04-24T08:17:18;100094.75;;;13.68
34807;BMP280;18310;55.586;12.286;2023-04-24T08:20:21;100119.44;;;14.10
34807;BMP280;18310;55.586;12.286;2023-04-24T08:23:24;100104.59;;;14.32
34807;BMP280;18310;55.586;12.286;2023-04-24T08:26:28;100106.56;;;14.50
34807;BMP280;18310;55.586;12.286;2023-04-24T08:29:32;100100.28;;;14.67
34807;BMP280;18310;55.586;12.286;2023-04-24T08:32:35;100099.50;;;14.77
34807;BMP280;18310;55.586;12.286;2023-04-24T08:35:39;100113.56;;;14.86
34807;BMP280;18310;55.586;12.286;2023-04-24T08:38:42;100105.31;;;14.89
34807;BMP280;18310;55.586;12.286;2023-04-24T08:41:50;100101.44;;;14.94
34807;BMP280;18310;55.586;12.286;2023-04-24T08:44:55;100090.44;;;15.01
34807;BMP280;18310;55.586;12.286;2023-04-24T08:47:59;100104.13;;;15.08
34807;BMP280;18310;55.586;12.286;2023-04-24T08:51:07;100102.56;;;15.18
34807;BMP280;18310;55.586;12.286;2023-04-24T08:54:11;100099.34;;;15.33
34807;BMP280;18310;55.586;12.286;2023-04-24T08:57:18;100102.81;;;15.44
34807;BMP280;18310;55.586;12.286;2023-04-24T09:00:22;100105.53;;;15.52
34807;BMP280;18310;55.586;12.286;2023-04-24T09:03:26;100107.06;;;15.56
34807;BMP280;18310;55.586;12.286;2023-04-24T09:06:30;100098.03;;;15.59
34807;BMP280;18310;55.586;12.286;2023-04-24T09:09:35;100093.72;;;15.62
34807;BMP280;18310;55.586;12.286;2023-04-24T09:12:40;100099.16;;;15.69
34807;BMP280;18310;55.586;12.286;2023-04-24T09:15:44;100079.56;;;15.67
34807;BMP280;18310;55.586;12.286;2023-04-24T09:18:47;100093.19;;;15.84
34807;BMP280;18310;55.586;12.286;2023-04-24T09:21:52;100098.53;;;16.02
34807;BMP280;18310;55.586;12.286;2023-04-24T09:25:02;100102.38;;;16.15
34807;BMP280;18310;55.586;12.286;2023-04-24T09:28:07;100101.91;;;16.24
34807;BMP280;18310;55.586;12.286;2023-04-24T09:31:13;100104.63;;;16.31
34807;BMP280;18310;55.586;12.286;2023-04-24T09:34:21;100104.16;;;16.36
34807;BMP280;18310;55.586;12.286;2023-04-24T09:37:28;100103.66;;;16.48
34807;BMP280;18310;55.586;12.286;2023-04-24T09:40:34;100097.31;;;16.58
34807;BMP280;18310;55.586;12.286;2023-04-24T09:43:39;100099.28;;;16.58
34807;BMP280;18310;55.586;12.286;2023-04-24T09:46:44;100080.06;;;16.58
34807;BMP280;18310;55.586;12.286;2023-04-24T09:49:47;100095.59;;;16.71
34807;BMP280;18310;55.586;12.286;2023-04-24T09:52:56;100105.28;;;16.83
34807;BMP280;18310;55.586;12.286;2023-04-24T09:56:06;100095.38;;;16.92
34807;BMP280;18310;55.586;12.286;2023-04-24T09:59:12;100086.28;;;16.96
34807;BMP280;18310;55.586;12.286;2023-04-24T10:02:17;100089.38;;;17.01
34807;BMP280;18310;55.586;12.286;2023-04-24T10:05:23;100088.50;;;17.08
34807;BMP280;18310;55.586;12.286;2023-04-24T10:08:26;100088.38;;;17.18
34807;BMP280;18310;55.586;12.286;2023-04-24T10:11:35;100078.88;;;17.26
34807;BMP280;18310;55.586;12.286;2023-04-24T10:14:40;100094.59;;;17.26
34807;BMP280;18310;55.586;12.286;2023-04-24T10:17:46;100092.97;;;17.28
34807;BMP280;18310;55.586;12.286;2023-04-24T10:20:54;100091.03;;;17.25
34807;BMP280;18310;55.586;12.286;2023-04-24T10:23:58;100096.19;;;17.23
34807;BMP280;18310;55.586;12.286;2023-04-24T10:27:02;100080.66;;;17.06
34807;BMP280;18310;55.586;12.286;2023-04-24T10:30:11;100099.84;;;17.13
34807;BMP280;18310;55.586;12.286;2023-04-24T10:33:14;100092.06;;;17.08
34807;BMP280;18310;55.586;12.286;2023-04-24T10:36:18;100089.38;;;17.01
34807;BMP280;18310;55.586;12.286;2023-04-24T10:39:24;100082.16;;;17.14
34807;BMP280;18310;55.586;12.286;2023-04-24T10:42:29;100085.22;;;17.20
34807;BMP280;18310;55.586;12.286;2023-04-24T10:45:34;100089.91;;;17.23
34807;BMP280;18310;55.586;12.286;2023-04-24T10:48:42;100101.66;;;17.27
34807;BMP280;18310;55.586;12.286;2023-04-24T10:51:47;100096.56;;;17.25
34807;BMP280;18310;55.586;12.286;2023-04-24T10:54:51;100093.41;;;17.27
34807;BMP280;18310;55.586;12.286;2023-04-24T10:58:01;100083.88;;;17.31
34807;BMP280;18310;55.586;12.286;2023-04-24T11:01:07;100093.31;;;17.34
34807;BMP280;18310;55.586;12.286;2023-04-24T11:04:10;100085.81;;;17.34
34807;BMP280;18310;55.586;12.286;2023-04-24T11:07:13;100093.31;;;17.30
34807;BMP280;18310;55.586;12.286;2023-04-24T11:10:25;100075.31;;;17.26
34807;BMP280;18310;55.586;12.286;2023-04-24T11:14:02;100079.69;;;17.23
34807;BMP280;18310;55.586;12.286;2023-04-24T11:17:07;100082.41;;;17.27
34807;BMP280;18310;55.586;12.286;2023-04-24T11:20:11;100078.13;;;17.22
34807;BMP280;18310;55.586;12.286;2023-04-24T11:23:35;100074.25;;;17.16
34807;BMP280;18310;55.586;12.286;2023-04-24T11:26:39;100072.03;;;17.08
34807;BMP280;18310;55.586;12.286;2023-04-24T11:29:46;100089.97;;;17.16
34807;BMP280;18310;55.586;12.286;2023-04-24T11:32:52;100093.50;;;17.16
34807;BMP280;18310;55.586;12.286;2023-04-24T11:35:55;100088.84;;;17.13
34807;BMP280;18310;55.586;12.286;2023-04-24T11:38:59;100081.41;;;17.10
34807;BMP280;18310;55.586;12.286;2023-04-24T11:42:02;100077.50;;;17.08
34807;BMP280;18310;55.586;12.286;2023-04-24T11:45:10;100079.88;;;17.06
34807;BMP280;18310;55.586;12.286;2023-04-24T11:48:19;100070.19;;;16.98
34807;BMP280;18310;55.586;12.286;2023-04-24T11:51:25;100081.13;;;17.01
34807;BMP280;18310;55.586;12.286;2023-04-24T11:54:37;100086.56;;;17.05
34807;BMP280;18310;55.586;12.286;2023-04-24T12:00:40;100081.44;;;17.07
34807;BMP280;18310;55.586;12.286;2023-04-24T12:03:47;100085.72;;;17.11
34807;BMP280;18310;55.586;12.286;2023-04-24T12:07:00;100072.72;;;17.15
34807;BMP280;18310;55.586;12.286;2023-04-24T12:10:28;100084.91;;;17.14
34807;BMP280;18310;55.586;12.286;2023-04-24T12:13:33;100081.72;;;17.16
34807;BMP280;18310;55.586;12.286;2023-04-24T12:16:36;100086.38;;;17.22
34807;BMP280;18310;55.586;12.286;2023-04-24T12:19:45;100075.63;;;17.31
34807;BMP280;18310;55.586;12.286;2023-04-24T12:22:50;100073.16;;;17.40
34807;BMP280;18310;55.586;12.286;2023-04-24T12:25:59;100080.91;;;17.49
34807;BMP280;18310;55.586;12.286;2023-04-24T12:29:03;100074.47;;;17.59
34807;BMP280;18310;55.586;12.286;2023-04-24T12:32:15;100086.50;;;17.69
34807;BMP280;18310;55.586;12.286;2023-04-24T12:35:20;100083.66;;;17.76
34807;BMP280;18310;55.586;12.286;2023-04-24T12:38:27;100076.84;;;17.84
34807;BMP280;18310;55.586;12.286;2023-04-24T12:41:33;100042.06;;;17.70
34807;BMP280;18310;55.586;12.286;2023-04-24T12:44:36;100068.66;;;18.04
34807;BMP280;18310;55.586;12.286;2023-04-24T12:47:41;100061.47;;;18.10
34807;BMP280;18310;55.586;12.286;2023-04-24T12:50:44;100069.91;;;18.22
34807;BMP280;18310;55.586;12.286;2023-04-24T12:53:48;100078.06;;;18.29
34807;BMP280;18310;55.586;12.286;2023-04-24T12:56:53;100063.03;;;18.34
34807;BMP280;18310;55.586;12.286;2023-04-24T12:59:58;100053.41;;;18.42
34807;BMP280;18310;55.586;12.286;2023-04-24T13:03:02;100065.66;;;18.61
34807;BMP280;18310;55.586;12.286;2023-04-24T13:06:06;100045.88;;;18.66
34807;BMP280;18310;55.586;12.286;2023-04-24T13:09:09;100060.09;;;18.84
34807;BMP280;18310;55.586;12.286;2023-04-24T13:12:14;100057.13;;;18.94
34807;BMP280;18310;55.586;12.286;2023-04-24T13:15:17;100050.66;;;19.01
34807;BMP280;18310;55.586;12.286;2023-04-24T13:18:21;100051.38;;;19.05
34807;BMP280;18310;55.586;12.286;2023-04-24T13:21:24;100051.22;;;19.12
34807;BMP280;18310;55.586;12.286;2023-04-24T13:24:28;100049.88;;;19.20
34807;BMP280;18310;55.586;12.286;2023-04-24T13:27:33;100036.19;;;19.13
34807;BMP280;18310;55.586;12.286;2023-04-24T13:30:37;100041.25;;;19.34
34807;BMP280;18310;55.586;12.286;2023-04-24T13:33:41;100036.44;;;19.38
34807;BMP280;18310;55.586;12.286;2023-04-24T13:36:45;100043.84;;;19.41
34807;BMP280;18310;55.586;12.286;2023-04-24T13:39:49;100032.13;;;19.37
34807;BMP280;18310;55.586;12.286;2023-04-24T13:42:54;100036.59;;;19.31
34807;BMP280;18310;55.586;12.286;2023-04-24T13:45:57;100033.59;;;19.42
34807;BMP280;18310;55.586;12.286;2023-04-24T13:49:03;100030.31;;;19.47
34807;BMP280;18310;55.586;12.286;2023-04-24T13:52:07;100031.97;;;19.61
34807;BMP280;18310;55.586;12.286;2023-04-24T13:55:12;100030.91;;;19.71
34807;BMP280;18310;55.586;12.286;2023-04-24T13:58:17;100022.97;;;19.73
34807;BMP280;18310;55.586;12.286;2023-04-24T14:01:40;100028.66;;;19.82
34807;BMP280;18310;55.586;12.286;2023-04-24T14:04:44;100034.38;;;19.91
34807;BMP280;18310;55.586;12.286;2023-04-24T14:07:47;100022.81;;;19.96
34807;BMP280;18310;55.586;12.286;2023-04-24T14:10:51;100023.22;;;19.94
34807;BMP280;18310;55.586;12.286;2023-04-24T14:13:54;100014.94;;;19.94
34807;BMP280;18310;55.586;12.286;2023-04-24T14:17:00;100021.66;;;19.93
34807;BMP280;18310;55.586;12.286;2023-04-24T14:20:04;99988.13;;;19.79
34807;BMP280;18310;55.586;12.286;2023-04-24T14:23:08;100004.00;;;19.91
34807;BMP280;18310;55.586;12.286;2023-04-24T14:26:11;100001.31;;;19.87
34807;BMP280;18310;55.586;12.286;2023-04-24T14:29:14;100007.69;;;19.84
34807;BMP280;18310;55.586;12.286;2023-04-24T14:32:19;100013.84;;;19.76
34807;BMP280;18310;55.586;12.286;2023-04-24T14:35:23;100007.72;;;19.68
34807;BMP280;18310;55.586;12.286;2023-04-24T14:38:26;99993.66;;;19.63
34807;BMP280;18310;55.586;12.286;2023-04-24T14:41:29;100001.25;;;19.59
34807;BMP280;18310;55.586;12.286;2023-04-24T14:44:33;99999.69;;;19.58
34807;BMP280;18310;55.586;12.286;2023-04-24T14:47:38;99993.75;;;19.59
34807;BMP280;18310;55.586;12.286;2023-04-24T14:50:41;99987.13;;;19.57
34807;BMP280;18310;55.586;12.286;2023-04-24T14:53:44;99980.03;;;19.56
34807;BMP280;18310;55.586;12.286;2023-04-24T14:56:48;99988.06;;;19.50
34807;BMP280;18310;55.586;12.286;2023-04-24T14:59:52;99987.88;;;19.41
34807;BMP280;18310;55.586;12.286;2023-04-24T15:02:57;99985.41;;;19.30
34807;BMP280;18310;55.586;12.286;2023-04-24T15:06:00;99985.09;;;19.25
34807;BMP280;18310;55.586;12.286;2023-04-24T15:09:04;99982.88;;;19.20
34807;BMP280;18310;55.586;12.286;2023-04-24T15:12:07;99990.59;;;19.09
34807;BMP280;18310;55.586;12.286;2023-04-24T15:15:11;99991.69;;;18.95
34807;BMP280;18310;55.586;12.286;2023-04-24T15:18:16;99977.09;;;18.78
34807;BMP280;18310;55.586;12.286;2023-04-24T15:21:19;99977.47;;;18.61
34807;BMP280;18310;55.586;12.286;2023-04-24T15:24:22;99970.75;;;18.42
34807;BMP280;18310;55.586;12.286;2023-04-24T15:27:26;99979.31;;;18.48
34807;BMP280;18310;55.586;12.286;2023-04-24T15:30:29;99975.50;;;18.41
34807;BMP280;18310;55.586;12.286;2023-04-24T15:33:33;99979.59;;;18.33
34807;BMP280;18310;55.586;12.286;2023-04-24T15:36:37;99974.59;;;18.28
34807;BMP280;18310;55.586;12.286;2023-04-24T15:39:40;99979.09;;;18.19
34807;BMP280;18310;55.586;12.286;2023-04-24T15:42:43;99973.75;;;18.08
34807;BMP280;18310;55.586;12.286;2023-04-24T15:45:46;99977.66;;;18.11
34807;BMP280;18310;55.586;12.286;2023-04-24T15:48:53;99967.31;;;18.18
34807;BMP280;18310;55.586;12.286;2023-04-24T15:51:56;99971.72;;;18.32
34807;BMP280;18310;55.586;12.286;2023-04-24T15:54:59;99971.97;;;18.41
34807;BMP280;18310;55.586;12.286;2023-04-24T15:58:03;99989.56;;;18.47
34807;BMP280;18310;55.586;12.286;2023-04-24T16:01:06;99987.66;;;18.44
34807;BMP280;18310;55.586;12.286;2023-04-24T16:04:11;99986.69;;;18.31
34807;BMP280;18310;55.586;12.286;2023-04-24T16:07:15;99978.31;;;18.18
34807;BMP280;18310;55.586;12.286;2023-04-24T16:10:19;99979.63;;;18.10
34807;BMP280;18310;55.586;12.286;2023-04-24T16:13:22;99972.28;;;18.04
34807;BMP280;18310;55.586;12.286;2023-04-24T16:16:26;99977.19;;;17.92
34807;BMP280;18310;55.586;12.286;2023-04-24T16:19:31;99971.19;;;17.98
34807;BMP280;18310;55.586;12.286;2023-04-24T16:22:34;99976.78;;;17.94
34807;BMP280;18310;55.586;12.286;2023-04-24T16:25:37;99970.56;;;17.90
34807;BMP280;18310;55.586;12.286;2023-04-24T16:28:40;99972.69;;;17.82
34807;BMP280;18310;55.586;12.286;2023-04-24T16:31:44;99974.34;;;17.76
34807;BMP280;18310;55.586;12.286;2023-04-24T16:34:49;99980.63;;;17.77
34807;BMP280;18310;55.586;12.286;2023-04-24T16:37:52;99975.94;;;17.74
34807;BMP280;18310;55.586;12.286;2023-04-24T16:40:55;99974.44;;;17.73
34807;BMP280;18310;55.586;12.286;2023-04-24T16:43:58;99973.97;;;17.74
34807;BMP280;18310;55.586;12.286;2023-04-24T16:47:02;99981.41;;;17.77
34807;BMP280;18310;55.586;12.286;2023-04-24T16:50:07;99985.28;;;17.80
34807;BMP280;18310;55.586;12.286;2023-04-24T16:53:11;99984.88;;;17.81
34807;BMP280;18310;55.586;12.286;2023-04-24T16:56:14;99966.47;;;17.75
34807;BMP280;18310;55.586;12.286;2023-04-24T16:59:17;99982.75;;;17.89
34807;BMP280;18310;55.586;12.286;2023-04-24T17:02:20;99986.59;;;17.95
34807;BMP280;18310;55.586;12.286;2023-04-24T17:05:25;99990.06;;;17.99
34807;BMP280;18310;55.586;12.286;2023-04-24T17:08:28;99989.44;;;17.91
34807;BMP280;18310;55.586;12.286;2023-04-24T17:11:33;99990.00;;;17.79
34807;BMP280;18310;55.586;12.286;2023-04-24T17:14:37;99998.09;;;17.67
34807;BMP280;18310;55.586;12.286;2023-04-24T17:17:40;99990.41;;;17.55
34807;BMP280;18310;55.586;12.286;2023-04-24T17:20:46;99992.56;;;17.43
34807;BMP280;18310;55.586;12.286;2023-04-24T17:23:49;100003.34;;;17.31
34807;BMP280;18310;55.586;12.286;2023-04-24T17:26:53;100005.47;;;17.20
34807;BMP280;18310;55.586;12.286;2023-04-24T17:30:10;100005.25;;;17.07
34807;BMP280;18310;55.586;12.286;2023-04-24T17:33:13;100001.19;;;16.88
34807;BMP280;18310;55.586;12.286;2023-04-24T17:36:17;100000.41;;;16.88
34807;BMP280;18310;55.586;12.286;2023-04-24T17:39:21;99994.53;;;16.86
34807;BMP280;18310;55.586;12.286;2023-04-24T17:42:24;99989.84;;;16.83
34807;BMP280;18310;55.586;12.286;2023-04-24T17:45:28;99987.84;;;16.87
34807;BMP280;18310;55.586;12.286;2023-04-24T17:48:31;99995.25;;;16.90
34807;BMP280;18310;55.586;12.286;2023-04-24T17:51:35;99996.84;;;16.91
34807;BMP280;18310;55.586;12.286;2023-04-24T17:54:38;99986.66;;;16.88
34807;BMP280;18310;55.586;12.286;2023-04-24T17:57:41;99987.84;;;16.87
34807;BMP280;18310;55.586;12.286;2023-04-24T18:00:44;99985.50;;;16.85
34807;BMP280;18310;55.586;12.286;2023-04-24T18:03:47;99994.53;;;16.86
34807;BMP280;18310;55.586;12.286;2023-04-24T18:06:52;100003.16;;;16.84
34807;BMP280;18310;55.586;12.286;2023-04-24T18:09:55;99998.47;;;16.85
34807;BMP280;18310;55.586;12.286;2023-04-24T18:12:58;100011.75;;;16.90
34807;BMP280;18310;55.586;12.286;2023-04-24T18:16:01;100003.41;;;16.97
34807;BMP280;18310;55.586;12.286;2023-04-24T18:19:04;100016.34;;;17.00
34807;BMP280;18310;55.586;12.286;2023-04-24T18:22:09;100015.88;;;17.05